createdAt,value
2023-03-28T00:01:04.688Z,2.00
2023-03-28T00:03:35.868Z,2.28
2023-03-28T00:06:05.531Z,1.98
2023-03-28T00:08:32.539Z,2.22
2023-03-28T00:11:25.774Z,1.85
2023-03-28T00:14:00.958Z,1.73
2023-03-28T00:16:34.145Z,1.98
2023-03-28T00:19:06.851Z,2.13
2023-03-28T00:21:37.364Z,2.37
2023-03-28T00:24:05.921Z,2.10
2023-03-28T00:26:35.649Z,2.58
2023-03-28T00:29:04.299Z,2.00
2023-03-28T00:31:35.236Z,2.35
2023-03-28T00:34:02.110Z,2.28
2023-03-28T00:36:29.544Z,2.53
2023-03-28T00:38:57.814Z,2.38
2023-03-28T00:41:26.947Z,2.65
2023-03-28T00:43:55.156Z,2.92
2023-03-28T00:46:26.868Z,2.30
2023-03-28T00:49:03.437Z,3.03
2023-03-28T00:51:34.078Z,3.17
2023-03-28T00:54:02.876Z,2.63
2023-03-28T00:56:34.055Z,2.42
2023-03-28T00:59:06.539Z,2.60
2023-03-28T01:01:33.700Z,3.05
2023-03-28T01:04:03.043Z,3.05
2023-03-28T01:06:35.288Z,2.88
2023-03-28T01:09:06.514Z,2.88
2023-03-28T01:11:36.705Z,2.72
2023-03-28T01:14:04.400Z,2.85
2023-03-28T01:16:31.563Z,2.63
2023-03-28T01:19:03.358Z,2.78
2023-03-28T01:22:08.405Z,3.47
2023-03-28T01:24:50.222Z,2.70
2023-03-28T01:27:19.961Z,2.97
2023-03-28T01:30:29.709Z,3.00
2023-03-28T01:33:25.061Z,2.70
2023-03-28T01:36:04.022Z,2.70
2023-03-28T01:38:47.038Z,3.22
2023-03-28T01:41:22.303Z,2.80
2023-03-28T01:44:14.753Z,2.75
2023-03-28T01:46:55.936Z,2.83
2023-03-28T01:49:33.071Z,3.20
2023-03-28T01:52:17.616Z,2.92
2023-03-28T01:55:00.438Z,2.92
2023-03-28T01:57:38.676Z,2.10
2023-03-28T02:00:13.553Z,3.15
2023-03-28T02:03:13.030Z,3.08
2023-03-28T02:05:42.859Z,3.33
2023-03-28T02:08:11.903Z,3.08
2023-03-28T02:10:41.606Z,2.92
2023-03-28T02:13:14.807Z,2.80
2023-03-28T02:15:46.109Z,3.40
2023-03-28T02:18:20.476Z,3.35
2023-03-28T02:20:53.967Z,3.15
2023-03-28T02:23:26.970Z,3.03
2023-03-28T02:25:53.720Z,2.58
2023-03-28T02:28:21.852Z,3.25
2023-03-28T02:30:48.578Z,3.30
2023-03-28T02:33:35.024Z,3.30
2023-03-28T02:36:33.119Z,2.78
2023-03-28T02:39:30.031Z,2.72
2023-03-28T02:42:32.149Z,2.78
2023-03-28T02:45:22.977Z,2.50
2023-03-28T02:48:06.709Z,2.50
2023-03-28T02:50:39.923Z,2.63
2023-03-28T02:53:34.356Z,3.38
2023-03-28T02:56:20.067Z,2.80
2023-03-28T02:58:49.353Z,2.92
2023-03-28T03:01:15.937Z,2.95
2023-03-28T03:03:43.739Z,2.67
2023-03-28T03:06:12.416Z,3.70
2023-03-28T03:08:39.171Z,2.95
2023-03-28T03:11:06.355Z,2.80
2023-03-28T03:13:32.975Z,2.38
2023-03-28T03:16:00.394Z,2.15
2023-03-28T03:18:27.459Z,2.72
2023-03-28T03:20:54.789Z,3.38
2023-03-28T03:23:21.633Z,2.70
2023-03-28T03:25:50.517Z,3.03
2023-03-28T03:28:17.442Z,2.70
2023-03-28T03:30:44.153Z,2.70
2023-03-28T03:33:11.350Z,2.80
2023-03-28T03:35:45.722Z,3.10
2023-03-28T03:38:13.069Z,2.83
2023-03-28T03:40:40.215Z,3.00
2023-03-28T03:43:06.885Z,2.28
2023-03-28T03:45:33.550Z,2.72
2023-03-28T03:48:00.229Z,2.55
2023-03-28T03:50:26.831Z,2.83
2023-03-28T03:52:53.492Z,3.35
2023-03-28T03:55:20.744Z,3.10
2023-03-28T03:57:47.328Z,2.95
2023-03-28T04:00:14.572Z,2.95
2023-03-28T04:02:41.402Z,2.83
2023-03-28T04:05:08.789Z,2.47
2023-03-28T04:07:35.736Z,2.95
2023-03-28T04:10:02.879Z,2.92
2023-03-28T04:12:29.692Z,2.65
2023-03-28T04:14:56.564Z,2.63
2023-03-28T04:17:23.380Z,2.60
2023-03-28T04:19:50.128Z,2.75
2023-03-28T04:22:18.285Z,2.72
2023-03-28T04:24:45.810Z,3.50
2023-03-28T04:27:12.432Z,3.20
2023-03-28T04:29:39.328Z,3.17
2023-03-28T04:32:06.224Z,2.90
2023-03-28T04:34:33.996Z,3.33
2023-03-28T04:37:02.537Z,3.10
2023-03-28T04:39:30.785Z,3.22
2023-03-28T04:42:01.683Z,3.55
2023-03-28T04:44:32.552Z,3.38
2023-03-28T04:46:59.950Z,3.65
2023-03-28T04:49:26.806Z,3.60
2023-03-28T04:51:53.542Z,3.67
2023-03-28T04:54:20.355Z,3.47
2023-03-28T04:56:50.204Z,3.50
2023-03-28T04:59:17.693Z,3.95
2023-03-28T05:01:50.425Z,3.63
2023-03-28T05:04:17.854Z,3.53
2023-03-28T05:06:48.607Z,3.13
2023-03-28T05:09:17.223Z,3.53
2023-03-28T05:11:46.018Z,3.28
2023-03-28T05:14:12.684Z,3.50
2023-03-28T05:16:39.358Z,3.03
2023-03-28T05:19:06.632Z,3.40
2023-03-28T05:21:33.490Z,3.47
2023-03-28T05:24:00.139Z,3.97
2023-03-28T05:26:28.050Z,3.42
2023-03-28T05:28:54.705Z,3.13
2023-03-28T05:31:21.329Z,4.00
2023-03-28T05:33:47.961Z,3.63
2023-03-28T05:36:14.768Z,3.60
2023-03-28T05:38:41.442Z,3.47
2023-03-28T05:41:08.050Z,3.75
2023-03-28T05:43:34.662Z,3.50
2023-03-28T05:46:01.561Z,3.95
2023-03-28T05:48:28.226Z,3.58
2023-03-28T05:50:54.829Z,3.60
2023-03-28T05:53:21.444Z,4.40
2023-03-28T05:55:49.612Z,3.97
2023-03-28T05:58:16.472Z,3.67
2023-03-28T06:00:44.771Z,4.32
2023-03-28T06:03:16.347Z,3.95
2023-03-28T06:05:44.554Z,4.10
2023-03-28T06:08:11.735Z,4.78
2023-03-28T06:10:38.786Z,4.68
2023-03-28T06:13:06.042Z,4.70
2023-03-28T06:15:32.993Z,3.95
2023-03-28T06:17:59.701Z,3.65
2023-03-28T06:20:26.356Z,4.45
2023-03-28T06:22:53.113Z,3.92
2023-03-28T06:25:19.886Z,3.95
2023-03-28T06:27:46.445Z,4.13
2023-03-28T06:30:13.741Z,3.42
2023-03-28T06:32:40.488Z,3.90
2023-03-28T06:35:07.897Z,3.58
2023-03-28T06:37:34.671Z,4.30
2023-03-28T06:40:01.286Z,4.28
2023-03-28T06:42:28.092Z,3.22
2023-03-28T06:44:54.699Z,3.15
2023-03-28T06:47:21.455Z,3.42
2023-03-28T06:49:48.045Z,3.03
2023-03-28T06:52:14.644Z,2.95
2023-03-28T06:54:41.264Z,2.92
2023-03-28T06:57:08.004Z,3.05
2023-03-28T06:59:34.970Z,3.25
2023-03-28T07:02:01.931Z,2.83
2023-03-28T07:04:28.773Z,3.40
2023-03-28T07:06:55.485Z,2.80
2023-03-28T07:09:22.105Z,2.30
2023-03-28T07:11:48.722Z,3.20
2023-03-28T07:14:15.446Z,3.00
2023-03-28T07:16:42.104Z,2.75
2023-03-28T07:19:08.769Z,2.58
2023-03-28T07:21:35.472Z,2.92
2023-03-28T07:24:02.256Z,2.42
2023-03-28T07:26:28.907Z,2.90
2023-03-28T07:28:55.901Z,2.60
2023-03-28T07:31:22.564Z,2.65
2023-03-28T07:33:50.219Z,2.72
2023-03-28T07:36:19.839Z,2.80
2023-03-28T07:38:49.210Z,2.55
2023-03-28T07:41:16.457Z,2.63
2023-03-28T07:43:43.536Z,2.22
2023-03-28T07:46:14.298Z,2.25
2023-03-28T07:48:41.898Z,2.40
2023-03-28T07:51:09.731Z,2.72
2023-03-28T07:53:37.923Z,2.40
2023-03-28T07:56:05.977Z,2.70
2023-03-28T07:58:32.609Z,3.00
2023-03-28T08:01:08.273Z,2.60
2023-03-28T08:03:36.223Z,2.00
2023-03-28T08:06:20.071Z,2.10
2023-03-28T08:08:55.511Z,2.58
2023-03-28T08:11:22.820Z,2.53
2023-03-28T08:13:49.437Z,1.92
2023-03-28T08:16:16.152Z,1.88
2023-03-28T08:18:42.798Z,2.03
2023-03-28T08:21:09.940Z,2.25
2023-03-28T08:23:36.865Z,1.88
2023-03-28T08:26:06.558Z,1.65
2023-03-28T08:28:35.313Z,2.55
2023-03-28T08:31:03.088Z,1.88
2023-03-28T08:33:32.696Z,2.20
2023-03-28T08:35:59.376Z,2.03
2023-03-28T08:38:26.072Z,2.17
2023-03-28T08:41:30.051Z,1.83
2023-03-28T08:44:30.588Z,1.88
2023-03-28T08:47:12.228Z,1.60
2023-03-28T08:49:47.335Z,1.80
2023-03-28T08:52:17.874Z,1.63
2023-03-28T08:54:57.734Z,2.28
2023-03-28T08:57:30.234Z,1.60
2023-03-28T09:00:20.771Z,1.30
2023-03-28T09:02:49.219Z,1.25
2023-03-28T09:05:41.481Z,1.27
2023-03-28T09:08:36.562Z,0.88
2023-03-28T09:11:15.733Z,1.40
2023-03-28T09:13:59.315Z,1.55
2023-03-28T09:19:36.963Z,0.90
2023-03-28T09:22:36.304Z,1.00
2023-03-28T09:25:30.659Z,1.27
2023-03-28T09:28:14.706Z,0.95
2023-03-28T09:30:47.037Z,1.77
2023-03-28T09:33:36.505Z,1.30
2023-03-28T09:36:10.853Z,0.93
2023-03-28T09:38:44.160Z,1.48
2023-03-28T09:43:56.250Z,1.55
2023-03-28T09:46:42.667Z,1.08
2023-03-28T09:49:21.413Z,1.25
2023-03-28T09:51:53.928Z,1.33
2023-03-28T09:54:29.147Z,1.27
2023-03-28T09:57:03.516Z,1.27
2023-03-28T09:59:33.057Z,1.25
2023-03-28T10:02:03.088Z,1.50
2023-03-28T10:04:29.931Z,1.10
2023-03-28T10:07:17.539Z,1.02
2023-03-28T10:09:52.373Z,1.25
2023-03-28T10:12:39.816Z,1.48
2023-03-28T10:15:08.802Z,1.05
2023-03-28T10:17:37.333Z,1.13
2023-03-28T10:20:23.875Z,1.27
2023-03-28T10:22:54.738Z,0.70
2023-03-28T10:25:32.031Z,1.13
2023-03-28T10:28:00.945Z,0.80
2023-03-28T10:30:30.166Z,0.75
2023-03-28T10:33:17.275Z,0.57
2023-03-28T10:36:09.717Z,0.65
2023-03-28T10:38:49.563Z,0.95
2023-03-28T10:41:27.840Z,0.73
2023-03-28T10:43:55.878Z,1.05
2023-03-28T10:46:35.352Z,0.82
2023-03-28T10:49:06.800Z,0.88
2023-03-28T10:51:36.947Z,0.90
2023-03-28T10:54:22.441Z,0.70
2023-03-28T10:57:03.740Z,0.70
2023-03-28T10:59:51.313Z,0.80
2023-03-28T11:02:23.627Z,0.88
2023-03-28T11:05:28.711Z,1.00
2023-03-28T11:08:31.472Z,0.88
2023-03-28T11:11:27.167Z,0.77
2023-03-28T11:14:23.171Z,0.73
2023-03-28T11:17:02.002Z,0.93
2023-03-28T11:19:43.488Z,0.70
2023-03-28T11:22:41.407Z,0.70
2023-03-28T11:25:45.903Z,1.35
2023-03-28T11:28:27.972Z,0.90
2023-03-28T11:30:58.585Z,0.63
2023-03-28T11:33:55.157Z,0.98
2023-03-28T11:36:53.760Z,0.75
2023-03-28T11:39:45.446Z,0.70
2023-03-28T11:42:35.389Z,0.70
2023-03-28T11:45:09.101Z,0.88
2023-03-28T11:47:43.057Z,1.00
2023-03-28T11:50:28.422Z,0.90
2023-03-28T11:53:01.038Z,1.02
2023-03-28T11:55:34.505Z,0.70
2023-03-28T11:58:27.888Z,0.90
2023-03-28T12:01:17.224Z,0.95
2023-03-28T12:04:12.733Z,1.23
2023-03-28T12:07:02.243Z,0.75
2023-03-28T12:09:59.536Z,0.70
2023-03-28T12:12:48.207Z,0.77
2023-03-28T12:15:19.283Z,0.80
2023-03-28T12:18:02.797Z,1.10
2023-03-28T12:23:03.265Z,0.60
2023-03-28T12:25:45.861Z,0.80
2023-03-28T12:28:29.183Z,0.87
2023-03-28T12:31:16.292Z,0.98
2023-03-28T12:33:55.913Z,0.60
2023-03-28T12:36:36.324Z,1.05
2023-03-28T12:39:34.890Z,1.00
2023-03-28T12:42:07.473Z,0.80
2023-03-28T12:44:49.410Z,0.70
2023-03-28T12:47:21.444Z,0.95
2023-03-28T12:50:03.342Z,0.80
2023-03-28T12:52:36.292Z,1.00
2023-03-28T12:55:09.562Z,0.82
2023-03-28T12:57:45.560Z,0.90
2023-03-28T13:00:13.487Z,0.65
2023-03-28T13:02:53.550Z,0.65
2023-03-28T13:05:28.034Z,0.85
2023-03-28T13:08:03.542Z,0.98
2023-03-28T13:10:35.654Z,0.60
2023-03-28T13:13:25.461Z,0.82
2023-03-28T13:16:05.803Z,0.70
2023-03-28T13:18:34.440Z,0.70
2023-03-28T13:21:04.559Z,0.70
2023-03-28T13:23:44.462Z,1.00
2023-03-28T13:26:11.174Z,0.52
2023-03-28T13:28:50.834Z,1.15
2023-03-28T13:31:25.588Z,0.80
2023-03-28T13:34:01.509Z,0.60
2023-03-28T13:36:29.281Z,0.68
2023-03-28T13:39:18.701Z,0.60
2023-03-28T13:41:45.266Z,0.65
2023-03-28T13:44:20.903Z,0.70
2023-03-28T13:46:49.067Z,0.77
2023-03-28T13:49:21.476Z,0.70
2023-03-28T13:52:07.439Z,0.93
2023-03-28T13:54:34.116Z,0.50
2023-03-28T13:57:06.963Z,0.65
2023-03-28T13:59:41.012Z,0.77
2023-03-28T14:02:18.493Z,1.10
2023-03-28T14:04:53.812Z,0.63
2023-03-28T14:07:25.943Z,0.90
2023-03-28T14:09:53.638Z,1.02
2023-03-28T14:12:21.385Z,0.63
2023-03-28T14:14:57.149Z,0.80
2023-03-28T14:17:27.834Z,0.95
2023-03-28T14:19:57.580Z,0.60
2023-03-28T14:22:29.098Z,0.75
2023-03-28T14:25:05.048Z,0.90
2023-03-28T14:27:39.013Z,0.95
2023-03-28T14:30:37.099Z,0.80
2023-03-28T14:33:10.881Z,0.93
2023-03-28T14:35:45.578Z,1.10
2023-03-28T14:38:14.805Z,0.60
2023-03-28T14:40:44.784Z,0.80
2023-03-28T14:43:14.270Z,0.70
2023-03-28T14:45:44.593Z,0.85
2023-03-28T14:48:16.991Z,0.88
2023-03-28T14:50:45.882Z,0.90
2023-03-28T14:53:25.047Z,0.60
2023-03-28T14:55:55.078Z,1.05
2023-03-28T14:58:24.643Z,0.80
2023-03-28T15:00:59.785Z,0.88
2023-03-28T15:03:41.378Z,0.75
2023-03-28T15:06:14.017Z,0.90
2023-03-28T15:08:40.878Z,1.00
2023-03-28T15:11:07.475Z,0.65
2023-03-28T15:13:38.968Z,1.10
2023-03-28T15:16:08.113Z,0.63
2023-03-28T15:18:46.753Z,0.90
2023-03-28T15:21:14.526Z,1.08
2023-03-28T15:23:50.939Z,1.20
2023-03-28T15:26:26.203Z,0.63
2023-03-28T15:28:54.793Z,1.02
2023-03-28T15:31:22.204Z,0.85
2023-03-28T15:33:51.450Z,0.82
2023-03-28T15:36:22.595Z,0.80
2023-03-28T15:38:51.204Z,0.85
2023-03-28T15:41:32.321Z,0.80
2023-03-28T15:44:11.312Z,1.00
2023-03-28T15:46:38.237Z,0.70
2023-03-28T15:49:07.175Z,0.70
2023-03-28T15:51:49.428Z,1.25
2023-03-28T15:54:28.116Z,1.45
2023-03-28T15:57:01.048Z,1.20
2023-03-28T15:59:36.209Z,1.10
2023-03-28T16:02:24.694Z,1.20
2023-03-28T16:05:09.476Z,1.27
2023-03-28T16:07:48.200Z,1.05
2023-03-28T16:10:23.153Z,0.82
2023-03-28T16:12:53.117Z,1.55
2023-03-28T16:15:20.247Z,1.08
2023-03-28T16:17:48.743Z,1.00
2023-03-28T16:20:18.351Z,0.77
2023-03-28T16:22:45.829Z,1.10
2023-03-28T16:25:12.459Z,0.85
2023-03-28T16:27:39.419Z,0.95
2023-03-28T16:30:14.105Z,1.00
2023-03-28T16:32:40.764Z,1.10
2023-03-28T16:35:09.289Z,1.63
2023-03-28T16:37:36.074Z,1.15
2023-03-28T16:40:04.283Z,0.93
2023-03-28T16:42:31.052Z,0.95
2023-03-28T16:44:59.756Z,0.63
2023-03-28T16:47:28.971Z,0.80
2023-03-28T16:49:55.679Z,1.08
2023-03-28T16:52:22.767Z,1.17
2023-03-28T16:54:49.409Z,1.38
2023-03-28T16:57:16.457Z,1.30
2023-03-28T16:59:43.174Z,1.00
2023-03-28T17:02:10.433Z,0.73
2023-03-28T17:04:37.032Z,1.20
2023-03-28T17:07:03.866Z,1.23
2023-03-28T17:09:32.607Z,1.75
2023-03-28T17:11:59.327Z,3.20
2023-03-28T17:14:25.907Z,2.78
2023-03-28T17:16:52.594Z,2.50
2023-03-28T17:19:22.977Z,1.35
2023-03-28T17:21:50.467Z,0.95
2023-03-28T17:24:18.064Z,1.08
2023-03-28T17:26:44.726Z,0.90
2023-03-28T17:29:11.941Z,1.20
2023-03-28T17:31:38.819Z,0.98
2023-03-28T17:34:05.520Z,1.13
2023-03-28T17:36:32.662Z,1.05
2023-03-28T17:38:59.537Z,1.48
2023-03-28T17:41:27.864Z,1.13
2023-03-28T17:43:56.492Z,0.90
2023-03-28T17:46:23.794Z,0.73
2023-03-28T17:48:50.808Z,0.88
2023-03-28T17:51:17.566Z,0.90
2023-03-28T17:53:46.830Z,0.73
2023-03-28T17:56:16.216Z,1.08
2023-03-28T17:58:43.599Z,1.27
2023-03-28T18:01:12.414Z,0.90
2023-03-28T18:03:39.509Z,1.23
2023-03-28T18:06:07.806Z,0.90
2023-03-28T18:08:34.968Z,1.10
2023-03-28T18:11:05.405Z,1.10
2023-03-28T18:13:32.989Z,1.00
2023-03-28T18:15:59.976Z,1.10
2023-03-28T18:18:26.846Z,1.52
2023-03-28T18:20:54.170Z,0.68
2023-03-28T18:23:20.791Z,0.98
2023-03-28T18:25:48.590Z,0.88
2023-03-28T18:28:15.339Z,1.00
2023-03-28T18:30:42.672Z,0.80
2023-03-28T18:33:11.569Z,1.67
2023-03-28T18:35:38.928Z,1.23
2023-03-28T18:38:05.758Z,1.67
2023-03-28T18:40:32.419Z,1.45
2023-03-28T18:42:59.051Z,1.15
2023-03-28T18:45:25.683Z,2.13
2023-03-28T18:47:52.396Z,1.83
2023-03-28T18:50:19.404Z,1.58
2023-03-28T18:52:46.056Z,1.27
2023-03-28T18:55:14.182Z,1.90
2023-03-28T18:57:40.977Z,2.42
2023-03-28T19:00:20.324Z,1.67
2023-03-28T19:02:48.629Z,2.03
2023-03-28T19:05:16.668Z,2.50
2023-03-28T19:07:44.445Z,3.03
2023-03-28T19:10:13.285Z,2.33
2023-03-28T19:12:41.036Z,2.53
2023-03-28T19:15:10.409Z,2.45
2023-03-28T19:17:38.683Z,2.70
2023-03-28T19:20:12.845Z,2.28
2023-03-28T19:22:40.285Z,3.00
2023-03-28T19:25:08.169Z,2.90
2023-03-28T19:27:38.197Z,2.72
2023-03-28T19:30:05.630Z,3.40
2023-03-28T19:32:32.734Z,3.15
2023-03-28T19:34:59.873Z,3.15
2023-03-28T19:37:26.540Z,3.88
2023-03-28T19:39:53.155Z,3.30
2023-03-28T19:42:20.304Z,3.53
2023-03-28T19:44:46.939Z,2.70
2023-03-28T19:47:13.548Z,2.88
2023-03-28T19:49:40.372Z,2.85
2023-03-28T19:52:09.737Z,3.28
2023-03-28T19:54:37.268Z,2.92
2023-03-28T19:57:07.481Z,2.70
2023-03-28T19:59:35.006Z,3.78
2023-03-28T20:02:02.409Z,2.83
2023-03-28T20:04:29.230Z,3.03
2023-03-28T20:06:56.228Z,3.10
2023-03-28T20:09:24.102Z,2.90
2023-03-28T20:11:51.182Z,3.42
2023-03-28T20:14:20.126Z,3.70
2023-03-28T20:16:47.917Z,3.30
2023-03-28T20:19:14.536Z,3.28
2023-03-28T20:21:41.205Z,2.80
2023-03-28T20:24:08.162Z,3.42
2023-03-28T20:26:34.782Z,4.05
2023-03-28T20:29:01.426Z,3.88
2023-03-28T20:31:29.068Z,4.50
2023-03-28T20:33:56.187Z,4.18
2023-03-28T20:36:23.331Z,3.92
2023-03-28T20:38:50.457Z,3.72
2023-03-28T20:41:18.239Z,4.20
2023-03-28T20:43:48.183Z,3.78
2023-03-28T20:46:20.274Z,4.35
2023-03-28T20:48:56.782Z,4.05
2023-03-28T20:51:23.765Z,3.50
2023-03-28T20:53:54.261Z,4.15
2023-03-28T20:56:21.879Z,3.08
2023-03-28T20:58:50.571Z,3.30
2023-03-28T21:01:18.311Z,4.50
2023-03-28T21:03:52.002Z,3.33
2023-03-28T21:06:22.274Z,3.55
2023-03-28T21:08:51.203Z,3.40
2023-03-28T21:11:21.129Z,3.58
2023-03-28T21:13:48.435Z,3.63
2023-03-28T21:16:17.058Z,3.70
2023-03-28T21:18:44.489Z,3.95
2023-03-28T21:21:13.130Z,3.20
2023-03-28T21:23:40.543Z,3.70
2023-03-28T21:26:09.724Z,3.67
2023-03-28T21:28:36.722Z,3.83
2023-03-28T21:31:10.344Z,3.83
2023-03-28T21:33:38.402Z,4.10
2023-03-28T21:36:08.902Z,3.83
2023-03-28T21:38:35.979Z,3.20
2023-03-28T21:41:04.093Z,3.45
2023-03-28T21:43:31.127Z,4.55
2023-03-28T21:45:58.552Z,4.78
2023-03-28T21:48:25.217Z,4.78
2023-03-28T21:50:53.853Z,4.35
2023-03-28T21:53:21.733Z,4.22
2023-03-28T21:55:48.476Z,5.15
2023-03-28T21:58:15.575Z,4.50
2023-03-28T22:00:42.647Z,4.45
2023-03-28T22:03:09.490Z,3.83
2023-03-28T22:05:42.682Z,4.88
2023-03-28T22:10:37.954Z,4.78
2023-03-28T22:13:06.634Z,5.43
2023-03-28T22:15:33.313Z,5.65
2023-03-28T22:18:00.558Z,5.40
2023-03-28T22:20:28.327Z,5.57
2023-03-28T22:22:55.122Z,5.82
2023-03-28T22:25:24.676Z,5.43
2023-03-28T22:27:52.806Z,5.05
2023-03-28T22:30:19.513Z,5.50
2023-03-28T22:32:46.875Z,5.18
2023-03-28T22:35:13.772Z,5.40
2023-03-28T22:37:40.698Z,5.38
2023-03-28T22:40:08.617Z,4.78
2023-03-28T22:42:35.218Z,5.50
2023-03-28T22:45:01.864Z,5.15
2023-03-28T22:47:30.250Z,5.20
2023-03-28T22:49:59.651Z,5.60
2023-03-28T22:52:26.304Z,5.93
2023-03-28T22:54:53.009Z,5.38
2023-03-28T22:57:19.727Z,5.65
2023-03-28T22:59:46.623Z,5.55
2023-03-28T23:02:13.287Z,4.95
2023-03-28T23:04:40.093Z,5.78
2023-03-28T23:07:06.898Z,5.80
2023-03-28T23:09:33.655Z,5.10
2023-03-28T23:12:00.417Z,5.00
2023-03-28T23:14:27.296Z,5.55
2023-03-28T23:16:54.113Z,6.05
2023-03-28T23:19:22.401Z,5.05
2023-03-28T23:21:50.164Z,4.20
2023-03-28T23:24:16.802Z,4.80
2023-03-28T23:26:43.416Z,5.85
2023-03-28T23:29:10.061Z,4.40
2023-03-28T23:31:36.711Z,4.75
2023-03-28T23:34:03.314Z,4.10
2023-03-28T23:36:30.079Z,4.38
2023-03-28T23:38:57.468Z,4.38
2023-03-28T23:41:24.143Z,2.90
2023-03-28T23:43:51.011Z,2.58
2023-03-28T23:46:17.672Z,3.00
2023-03-28T23:48:44.293Z,2.00
2023-03-28T23:51:10.901Z,1.90
2023-03-28T23:53:37.473Z,1.65
2023-03-28T23:56:04.517Z,1.42
2023-03-28T23:58:31.540Z,1.05
